createdAt,value
2023-01-21T00:01:20.718Z,12.40
2023-01-21T00:03:48.128Z,10.77
2023-01-21T00:06:15.980Z,9.40
2023-01-21T00:08:43.852Z,10.63
2023-01-21T00:11:15.290Z,10.70
2023-01-21T00:13:44.535Z,10.00
2023-01-21T00:16:13.674Z,11.03
2023-01-21T00:18:41.820Z,12.30
2023-01-21T00:21:10.264Z,13.63
2023-01-21T00:23:37.586Z,15.90
2023-01-21T00:26:08.615Z,17.10
2023-01-21T00:28:37.202Z,18.40
2023-01-21T00:31:09.160Z,19.40
2023-01-21T00:33:37.256Z,18.00
2023-01-21T00:36:09.042Z,19.80
2023-01-21T00:38:37.867Z,19.23
2023-01-21T00:41:13.128Z,18.57
2023-01-21T00:43:42.078Z,18.25
2023-01-21T00:46:11.068Z,18.67
2023-01-21T00:48:38.860Z,18.02
2023-01-21T00:51:07.020Z,17.47
2023-01-21T00:53:38.382Z,16.42
2023-01-21T00:56:10.427Z,16.07
2023-01-21T00:58:38.219Z,16.63
2023-01-21T01:01:13.626Z,13.43
2023-01-21T01:03:42.428Z,12.90
2023-01-21T01:06:15.562Z,14.03
2023-01-21T01:08:44.364Z,13.90
2023-01-21T01:11:13.380Z,13.10
2023-01-21T01:13:41.156Z,12.80
2023-01-21T01:16:10.734Z,11.07
2023-01-21T01:18:38.390Z,12.23
2023-01-21T01:21:06.830Z,12.27
2023-01-21T01:23:34.129Z,11.77
2023-01-21T01:26:06.081Z,11.07
2023-01-21T01:28:34.686Z,11.80
2023-01-21T01:31:08.695Z,11.70
2023-01-21T01:33:36.036Z,11.00
2023-01-21T01:36:14.124Z,11.27
2023-01-21T01:38:41.787Z,11.17
2023-01-21T01:41:16.462Z,13.00
2023-01-21T01:44:00.865Z,13.07
2023-01-21T01:46:37.193Z,12.27
2023-01-21T01:49:07.234Z,12.07
2023-01-21T01:51:42.817Z,11.55
2023-01-21T01:54:14.545Z,10.30
2023-01-21T01:56:48.095Z,10.33
2023-01-21T01:59:16.326Z,11.87
2023-01-21T02:01:43.993Z,10.80
2023-01-21T02:04:21.031Z,11.13
2023-01-21T02:06:52.040Z,11.95
2023-01-21T02:09:19.547Z,10.70
2023-01-21T02:11:47.394Z,12.43
2023-01-21T02:14:14.776Z,12.95
2023-01-21T02:17:14.577Z,11.83
2023-01-21T02:19:50.086Z,11.15
2023-01-21T02:22:30.876Z,11.00
2023-01-21T02:25:54.911Z,10.97
2023-01-21T02:29:05.080Z,11.93
2023-01-21T02:31:53.078Z,11.07
2023-01-21T02:34:35.367Z,10.53
2023-01-21T02:37:51.823Z,10.10
2023-01-21T02:40:58.148Z,11.43
2023-01-21T02:44:08.061Z,9.93
2023-01-21T02:46:48.967Z,10.27
2023-01-21T02:49:45.553Z,9.90
2023-01-21T02:52:26.418Z,9.60
2023-01-21T02:55:00.113Z,9.60
2023-01-21T02:57:47.624Z,10.32
2023-01-21T03:00:53.654Z,10.27
2023-01-21T03:03:44.211Z,9.43
2023-01-21T03:06:44.715Z,10.13
2023-01-21T03:09:31.055Z,10.87
2023-01-21T03:12:22.607Z,9.27
2023-01-21T03:15:31.832Z,9.30
2023-01-21T03:18:25.282Z,9.10
2023-01-21T03:21:25.136Z,9.18
2023-01-21T03:23:55.299Z,10.02
2023-01-21T03:26:35.871Z,9.20
2023-01-21T03:29:16.802Z,9.00
2023-01-21T03:31:50.330Z,10.23
2023-01-21T03:34:21.388Z,10.18
2023-01-21T03:37:05.417Z,10.70
2023-01-21T03:40:20.969Z,11.30
2023-01-21T03:42:51.152Z,9.80
2023-01-21T03:45:45.783Z,10.27
2023-01-21T03:48:52.895Z,9.57
2023-01-21T03:51:39.083Z,8.63
2023-01-21T03:54:06.680Z,8.53
2023-01-21T03:56:33.979Z,8.63
2023-01-21T03:59:01.620Z,8.75
2023-01-21T04:01:28.916Z,10.43
2023-01-21T04:03:56.488Z,9.57
2023-01-21T04:06:24.213Z,8.90
2023-01-21T04:08:51.772Z,8.73
2023-01-21T04:11:19.073Z,8.47
2023-01-21T04:13:46.611Z,8.83
2023-01-21T04:16:13.940Z,8.40
2023-01-21T04:18:41.483Z,8.43
2023-01-21T04:21:08.909Z,8.50
2023-01-21T04:23:36.442Z,7.80
2023-01-21T04:26:03.790Z,8.87
2023-01-21T04:28:31.424Z,8.20
2023-01-21T04:30:58.707Z,9.90
2023-01-21T04:33:26.688Z,10.02
2023-01-21T04:35:59.678Z,10.53
2023-01-21T04:38:28.187Z,9.43
2023-01-21T04:40:55.577Z,8.57
2023-01-21T04:43:23.170Z,9.00
2023-01-21T04:45:50.718Z,7.53
2023-01-21T04:48:18.580Z,6.97
2023-01-21T04:50:47.454Z,8.07
2023-01-21T04:53:15.090Z,7.63
2023-01-21T04:55:42.303Z,7.77
2023-01-21T04:58:09.981Z,7.90
2023-01-21T05:00:37.339Z,8.07
2023-01-21T05:03:05.109Z,7.77
2023-01-21T05:05:32.314Z,6.83
2023-01-21T05:07:59.988Z,6.90
2023-01-21T05:10:27.341Z,6.82
2023-01-21T05:12:54.918Z,7.20
2023-01-21T05:15:22.324Z,6.33
2023-01-21T05:17:49.915Z,6.23
2023-01-21T05:20:17.729Z,5.83
2023-01-21T05:22:48.942Z,6.80
2023-01-21T05:25:17.025Z,7.55
2023-01-21T05:27:44.616Z,7.53
2023-01-21T05:30:12.194Z,7.10
2023-01-21T05:32:40.953Z,7.03
2023-01-21T05:35:09.051Z,7.53
2023-01-21T05:37:36.617Z,7.60
2023-01-21T05:40:04.391Z,7.27
2023-01-21T05:42:31.963Z,8.20
2023-01-21T05:45:01.558Z,7.72
2023-01-21T05:47:29.208Z,7.57
2023-01-21T05:49:56.488Z,7.60
2023-01-21T05:52:24.083Z,8.10
2023-01-21T05:55:01.429Z,7.47
2023-01-21T05:57:31.604Z,7.60
2023-01-21T05:59:59.237Z,7.90
2023-01-21T06:02:27.441Z,7.93
2023-01-21T06:04:54.839Z,7.73
2023-01-21T06:07:22.443Z,8.63
2023-01-21T06:09:49.735Z,7.90
2023-01-21T06:12:17.309Z,8.90
2023-01-21T06:14:44.545Z,8.20
2023-01-21T06:17:12.161Z,8.70
2023-01-21T06:19:39.375Z,8.93
2023-01-21T06:22:06.909Z,8.80
2023-01-21T06:24:34.298Z,8.48
2023-01-21T06:27:01.983Z,7.83
2023-01-21T06:29:29.232Z,7.88
2023-01-21T06:31:56.840Z,8.03
2023-01-21T06:34:24.169Z,8.30
2023-01-21T06:36:51.759Z,8.70
2023-01-21T06:39:19.196Z,8.07
2023-01-21T06:41:46.719Z,8.37
2023-01-21T06:44:14.150Z,8.60
2023-01-21T06:46:45.965Z,7.83
2023-01-21T06:49:19.549Z,8.70
2023-01-21T06:51:47.220Z,8.23
2023-01-21T06:54:14.620Z,8.47
2023-01-21T06:56:43.728Z,8.30
2023-01-21T06:59:11.263Z,8.03
2023-01-21T07:01:38.837Z,7.87
2023-01-21T07:04:06.142Z,8.40
2023-01-21T07:06:33.771Z,8.83
2023-01-21T07:09:01.343Z,8.23
2023-01-21T07:11:28.887Z,8.40
2023-01-21T07:13:56.167Z,8.40
2023-01-21T07:16:24.237Z,8.20
2023-01-21T07:18:51.557Z,8.60
2023-01-21T07:21:19.533Z,8.45
2023-01-21T07:23:47.100Z,8.53
2023-01-21T07:26:15.353Z,9.30
2023-01-21T07:28:42.629Z,10.23
2023-01-21T07:31:10.261Z,11.30
2023-01-21T07:33:37.797Z,12.10
2023-01-21T07:36:06.047Z,11.60
2023-01-21T07:38:33.990Z,14.13
2023-01-21T07:41:01.651Z,13.40
2023-01-21T07:43:28.998Z,14.83
2023-01-21T07:45:59.904Z,14.88
2023-01-21T07:48:27.454Z,16.57
2023-01-21T07:50:58.887Z,14.88
2023-01-21T07:53:27.049Z,16.43
2023-01-21T07:55:54.611Z,17.40
2023-01-21T07:58:21.944Z,17.63
2023-01-21T08:00:49.657Z,14.98
2023-01-21T08:03:20.126Z,13.83
2023-01-21T08:05:47.828Z,13.30
2023-01-21T08:08:15.163Z,12.50
2023-01-21T08:10:42.783Z,12.35
2023-01-21T08:13:10.188Z,10.63
2023-01-21T08:15:37.868Z,10.88
2023-01-21T08:18:05.234Z,11.75
2023-01-21T08:20:32.937Z,11.00
2023-01-21T08:23:01.476Z,12.13
2023-01-21T08:25:29.006Z,13.93
2023-01-21T08:27:59.329Z,16.17
2023-01-21T08:30:27.195Z,16.40
2023-01-21T08:32:54.661Z,24.17
2023-01-21T08:35:22.255Z,21.40
2023-01-21T08:37:50.001Z,17.65
2023-01-21T08:40:17.701Z,17.80
2023-01-21T08:42:45.004Z,14.70
2023-01-21T08:45:15.144Z,17.92
2023-01-21T08:47:42.673Z,14.93
2023-01-21T08:50:11.230Z,16.90
2023-01-21T08:52:38.551Z,16.23
2023-01-21T08:55:06.942Z,16.70
2023-01-21T08:57:34.637Z,13.07
2023-01-21T09:00:02.216Z,13.70
2023-01-21T09:02:29.601Z,15.43
2023-01-21T09:04:57.310Z,17.52
2023-01-21T09:07:24.647Z,19.30
2023-01-21T09:09:52.227Z,23.27
2023-01-21T09:12:19.735Z,14.15
2023-01-21T09:14:47.330Z,14.55
2023-01-21T09:17:14.675Z,14.40
2023-01-21T09:19:42.351Z,15.43
2023-01-21T09:22:09.753Z,13.90
2023-01-21T09:24:37.745Z,12.75
2023-01-21T09:27:07.839Z,13.05
2023-01-21T09:29:35.670Z,16.35
2023-01-21T09:32:05.315Z,14.07
2023-01-21T09:34:35.436Z,14.53
2023-01-21T09:37:05.152Z,13.75
2023-01-21T09:39:32.776Z,13.38
2023-01-21T09:42:00.187Z,16.97
2023-01-21T09:44:49.233Z,16.13
2023-01-21T09:47:39.420Z,19.58
2023-01-21T09:50:35.144Z,13.23
2023-01-21T09:53:26.328Z,13.80
2023-01-21T09:55:59.617Z,15.60
2023-01-21T09:59:02.496Z,15.20
2023-01-21T10:01:40.512Z,18.55
2023-01-21T10:04:22.633Z,18.33
2023-01-21T10:07:08.585Z,18.13
2023-01-21T10:10:17.078Z,18.20
2023-01-21T10:13:25.464Z,17.05
2023-01-21T10:16:13.415Z,15.20
2023-01-21T10:18:47.539Z,15.68
2023-01-21T10:21:23.720Z,15.63
2023-01-21T10:23:59.653Z,17.75
2023-01-21T10:26:29.880Z,21.30
2023-01-21T10:28:57.531Z,23.13
2023-01-21T10:31:36.038Z,16.88
2023-01-21T10:34:20.223Z,17.63
2023-01-21T10:37:43.262Z,18.23
2023-01-21T10:40:43.931Z,15.35
2023-01-21T10:43:47.592Z,18.00
2023-01-21T10:47:02.625Z,17.40
2023-01-21T10:50:00.550Z,17.67
2023-01-21T10:52:39.807Z,14.93
2023-01-21T10:55:45.972Z,14.93
2023-01-21T10:58:41.064Z,14.55
2023-01-21T11:01:20.961Z,16.42
2023-01-21T11:03:54.970Z,17.08
2023-01-21T11:06:25.086Z,15.85
2023-01-21T11:09:03.090Z,17.40
2023-01-21T11:11:36.975Z,19.92
2023-01-21T11:14:04.578Z,20.55
2023-01-21T11:16:43.069Z,20.52
2023-01-21T11:19:16.566Z,21.13
2023-01-21T11:22:04.417Z,19.93
2023-01-21T11:24:52.822Z,19.40
2023-01-21T11:27:22.540Z,24.58
2023-01-21T11:29:50.957Z,21.40
2023-01-21T11:32:30.421Z,29.60
2023-01-21T11:35:23.243Z,22.15
2023-01-21T11:37:50.785Z,19.45
2023-01-21T11:40:26.066Z,18.58
2023-01-21T11:42:56.628Z,19.97
2023-01-21T11:45:33.092Z,20.88
2023-01-21T11:48:01.791Z,22.27
2023-01-21T11:50:37.975Z,20.13
2023-01-21T11:53:09.096Z,22.20
2023-01-21T11:55:51.555Z,29.90
2023-01-21T11:58:31.532Z,24.50
2023-01-21T12:01:18.940Z,19.10
2023-01-21T12:03:57.331Z,17.50
2023-01-21T12:06:32.026Z,17.10
2023-01-21T12:09:07.940Z,19.50
2023-01-21T12:11:35.624Z,21.07
2023-01-21T12:14:44.271Z,20.15
2023-01-21T12:17:45.254Z,22.08
2023-01-21T12:20:58.458Z,21.13
2023-01-21T12:23:36.112Z,19.97
2023-01-21T12:26:34.055Z,19.13
2023-01-21T12:29:09.511Z,17.63
2023-01-21T12:31:45.627Z,20.65
2023-01-21T12:34:32.423Z,23.17
2023-01-21T12:37:11.674Z,22.75
2023-01-21T12:39:42.576Z,23.08
2023-01-21T12:42:43.617Z,22.83
2023-01-21T12:45:17.976Z,19.77
2023-01-21T12:47:51.429Z,18.85
2023-01-21T12:50:30.376Z,20.23
2023-01-21T12:53:09.973Z,26.40
2023-01-21T12:55:58.968Z,23.87
2023-01-21T12:58:38.356Z,20.95
2023-01-21T13:01:31.258Z,21.75
2023-01-21T13:04:30.194Z,19.67
2023-01-21T13:07:14.882Z,22.30
2023-01-21T13:09:58.144Z,24.52
2023-01-21T13:12:30.878Z,23.90
2023-01-21T13:15:25.131Z,32.88
2023-01-21T13:17:59.904Z,28.08
2023-01-21T13:20:30.185Z,26.45
2023-01-21T13:23:29.444Z,21.13
2023-01-21T13:26:29.159Z,21.92
2023-01-21T13:29:17.675Z,26.73
2023-01-21T13:32:11.914Z,23.43
2023-01-21T13:34:51.505Z,23.38
2023-01-21T13:37:49.207Z,25.97
2023-01-21T13:40:28.913Z,22.23
2023-01-21T13:43:08.189Z,21.40
2023-01-21T13:46:03.665Z,29.50
2023-01-21T13:49:25.568Z,26.65
2023-01-21T13:52:01.914Z,26.83
2023-01-21T13:54:34.619Z,18.27
2023-01-21T13:57:55.579Z,20.13
2023-01-21T14:00:37.902Z,18.65
2023-01-21T14:03:08.311Z,20.77
2023-01-21T14:05:45.472Z,22.45
2023-01-21T14:08:47.674Z,19.17
2023-01-21T14:11:31.783Z,17.75
2023-01-21T14:14:18.822Z,17.77
2023-01-21T14:17:23.626Z,22.90
2023-01-21T14:20:12.822Z,22.10
2023-01-21T14:22:52.097Z,22.33
2023-01-21T14:25:22.514Z,20.40
2023-01-21T14:28:33.899Z,21.10
2023-01-21T14:31:15.357Z,21.15
2023-01-21T14:33:48.822Z,22.17
2023-01-21T14:36:38.658Z,19.87
2023-01-21T14:39:34.862Z,19.58
2023-01-21T14:42:14.910Z,21.10
2023-01-21T14:44:43.595Z,21.85
2023-01-21T14:47:40.221Z,21.25
2023-01-21T14:50:10.277Z,23.88
2023-01-21T14:52:47.392Z,24.50
2023-01-21T14:55:31.363Z,27.73
2023-01-21T14:58:01.875Z,22.80
2023-01-21T15:00:32.839Z,20.13
2023-01-21T15:03:27.132Z,19.38
2023-01-21T15:06:09.905Z,18.73
2023-01-21T15:08:46.408Z,21.70
2023-01-21T15:11:38.807Z,21.05
2023-01-21T15:14:25.989Z,19.13
2023-01-21T15:16:53.562Z,20.75
2023-01-21T15:19:36.370Z,22.23
2023-01-21T15:22:15.568Z,21.10
2023-01-21T15:25:20.966Z,19.60
2023-01-21T15:28:40.463Z,17.65
2023-01-21T15:31:40.214Z,18.58
2023-01-21T15:34:18.465Z,19.73
2023-01-21T15:36:53.449Z,17.67
2023-01-21T15:39:34.652Z,16.27
2023-01-21T15:42:38.480Z,16.83
2023-01-21T15:45:26.678Z,14.85
2023-01-21T15:48:42.525Z,16.23
2023-01-21T15:51:20.805Z,16.52
2023-01-21T15:54:48.208Z,21.63
2023-01-21T15:57:50.609Z,18.53
2023-01-21T16:00:29.752Z,18.02
2023-01-21T16:03:35.483Z,21.87
2023-01-21T16:06:29.550Z,20.07
2023-01-21T16:09:10.141Z,22.57
2023-01-21T16:12:23.253Z,25.37
2023-01-21T16:15:30.513Z,20.03
2023-01-21T16:18:12.847Z,19.80
2023-01-21T16:20:47.850Z,23.33
2023-01-21T16:23:19.093Z,22.90
2023-01-21T16:25:52.875Z,22.35
2023-01-21T16:28:21.656Z,25.73
2023-01-21T16:30:59.250Z,22.30
2023-01-21T16:33:27.026Z,25.05
2023-01-21T16:36:01.121Z,27.47
2023-01-21T16:38:32.375Z,24.40
2023-01-21T16:41:08.509Z,24.10
2023-01-21T16:43:45.682Z,23.15
2023-01-21T16:46:17.989Z,26.45
2023-01-21T16:48:57.518Z,20.60
2023-01-21T16:51:33.461Z,25.35
2023-01-21T16:54:33.837Z,23.90
2023-01-21T16:57:25.783Z,30.53
2023-01-21T16:59:56.012Z,33.00
2023-01-21T17:02:34.103Z,34.20
2023-01-21T17:05:08.314Z,36.03
2023-01-21T17:07:50.745Z,37.30
2023-01-21T17:10:24.612Z,41.87
2023-01-21T17:13:16.223Z,40.13
2023-01-21T17:15:57.544Z,39.77
2023-01-21T17:18:42.866Z,36.33
2023-01-21T17:21:17.147Z,38.33
2023-01-21T17:23:55.668Z,35.88
2023-01-21T17:26:31.708Z,39.65
2023-01-21T17:29:21.245Z,36.47
2023-01-21T17:32:00.309Z,39.33
2023-01-21T17:34:40.568Z,37.03
2023-01-21T17:37:51.361Z,37.33
2023-01-21T17:40:58.900Z,32.63
2023-01-21T17:43:28.085Z,37.40
2023-01-21T17:45:58.194Z,35.37
2023-01-21T17:48:36.624Z,33.88
2023-01-21T17:51:13.905Z,37.07
2023-01-21T17:54:00.840Z,30.03
2023-01-21T17:56:37.778Z,32.20
2023-01-21T17:59:41.026Z,30.27
2023-01-21T18:02:15.072Z,30.30
2023-01-21T18:04:43.571Z,26.98
2023-01-21T18:07:30.046Z,31.23
2023-01-21T18:10:02.809Z,26.95
2023-01-21T18:12:30.165Z,24.83
2023-01-21T18:14:58.618Z,31.10
2023-01-21T18:17:26.327Z,31.47
2023-01-21T18:19:54.115Z,24.27
2023-01-21T18:22:30.521Z,27.07
2023-01-21T18:24:58.357Z,26.67
2023-01-21T18:27:26.411Z,24.37
2023-01-21T18:29:54.644Z,28.80
2023-01-21T18:32:22.101Z,28.90
2023-01-21T18:34:49.674Z,27.63
2023-01-21T18:37:19.545Z,31.27
2023-01-21T18:39:47.418Z,31.67
2023-01-21T18:42:18.225Z,30.03
2023-01-21T18:44:46.302Z,29.95
2023-01-21T18:47:19.489Z,27.35
2023-01-21T18:49:49.520Z,27.40
2023-01-21T18:52:21.334Z,25.10
2023-01-21T18:54:48.894Z,28.58
2023-01-21T18:57:21.674Z,26.08
2023-01-21T18:59:49.390Z,28.83
2023-01-21T19:02:20.174Z,26.90
2023-01-21T19:04:48.511Z,28.03
2023-01-21T19:07:21.572Z,33.60
2023-01-21T19:09:51.314Z,29.23
2023-01-21T19:12:21.358Z,26.10
2023-01-21T19:14:49.440Z,25.00
2023-01-21T19:17:27.627Z,24.25
2023-01-21T19:19:57.133Z,26.52
2023-01-21T19:22:24.902Z,30.17
2023-01-21T19:24:52.704Z,34.90
2023-01-21T19:27:32.172Z,33.90
2023-01-21T19:29:59.773Z,30.80
2023-01-21T19:32:27.151Z,48.78
2023-01-21T19:34:57.023Z,53.40
2023-01-21T19:37:25.699Z,55.70
2023-01-21T19:39:53.395Z,54.70
2023-01-21T19:42:21.085Z,50.27
2023-01-21T19:44:48.681Z,50.95
2023-01-21T19:47:27.799Z,47.90
2023-01-21T19:49:55.453Z,42.40
2023-01-21T19:52:22.783Z,41.47
2023-01-21T19:54:50.346Z,34.28
2023-01-21T19:57:18.188Z,29.37
2023-01-21T19:59:49.592Z,29.87
2023-01-21T20:02:17.053Z,27.43
2023-01-21T20:04:45.394Z,26.02
2023-01-21T20:07:15.572Z,27.83
2023-01-21T20:09:43.286Z,29.10
2023-01-21T20:12:13.559Z,30.80
2023-01-21T20:14:41.187Z,30.73
2023-01-21T20:17:14.175Z,28.40
2023-01-21T20:19:41.894Z,32.87
2023-01-21T20:22:10.741Z,30.33
2023-01-21T20:24:38.351Z,30.50
2023-01-21T20:27:09.356Z,31.77
2023-01-21T20:29:44.476Z,29.10
2023-01-21T20:32:12.096Z,32.77
2023-01-21T20:34:39.751Z,38.43
2023-01-21T20:37:09.225Z,34.10
2023-01-21T20:39:36.862Z,33.45
2023-01-21T20:42:04.386Z,32.50
2023-01-21T20:44:32.120Z,35.63
2023-01-21T20:47:01.093Z,35.03
2023-01-21T20:49:30.782Z,31.30
2023-01-21T20:51:58.156Z,36.40
2023-01-21T20:54:26.801Z,34.77
2023-01-21T20:56:54.104Z,34.23
2023-01-21T20:59:21.919Z,35.23
2023-01-21T21:01:51.416Z,35.55
2023-01-21T21:04:19.216Z,36.93
2023-01-21T21:06:46.564Z,33.07
2023-01-21T21:09:14.140Z,38.50
2023-01-21T21:11:41.455Z,40.33
2023-01-21T21:14:09.042Z,38.83
2023-01-21T21:16:36.519Z,36.97
2023-01-21T21:19:04.295Z,40.83
2023-01-21T21:21:31.620Z,49.43
2023-01-21T21:23:59.643Z,44.17
2023-01-21T21:26:33.569Z,39.00
2023-01-21T21:29:01.314Z,41.13
2023-01-21T21:31:32.126Z,46.00
2023-01-21T21:33:59.858Z,46.70
2023-01-21T21:36:27.454Z,50.70
2023-01-21T21:38:56.015Z,48.83
2023-01-21T21:41:45.074Z,48.87
2023-01-21T21:44:13.358Z,49.27
2023-01-21T21:47:00.023Z,46.20
2023-01-21T21:49:28.831Z,51.47
2023-01-21T21:51:57.080Z,52.17
2023-01-21T21:54:24.688Z,54.10
2023-01-21T21:56:52.302Z,60.20
2023-01-21T21:59:19.863Z,61.77
2023-01-21T22:01:47.240Z,57.90
2023-01-21T22:04:15.132Z,61.57
2023-01-21T22:06:42.461Z,61.37
2023-01-21T22:09:10.940Z,62.80
2023-01-21T22:11:38.516Z,60.57
2023-01-21T22:14:06.334Z,61.03
2023-01-21T22:16:34.211Z,65.63
2023-01-21T22:19:01.961Z,65.93
2023-01-21T22:21:33.100Z,67.40
2023-01-21T22:24:08.347Z,70.77
2023-01-21T22:26:36.219Z,71.23
2023-01-21T22:29:05.410Z,75.90
2023-01-21T22:31:33.906Z,70.83
2023-01-21T22:34:02.075Z,66.95
2023-01-21T22:36:31.657Z,68.60
2023-01-21T22:38:59.796Z,66.77
2023-01-21T22:41:28.146Z,68.07
2023-01-21T22:43:56.040Z,64.53
2023-01-21T22:46:27.166Z,63.60
2023-01-21T22:48:55.376Z,69.73
2023-01-21T22:51:23.710Z,66.23
2023-01-21T22:53:52.992Z,62.53
2023-01-21T22:56:31.492Z,57.73
2023-01-21T22:59:03.462Z,59.40
2023-01-21T23:01:31.811Z,55.83
2023-01-21T23:04:00.607Z,55.90
2023-01-21T23:06:28.666Z,55.57
2023-01-21T23:08:56.512Z,57.57
2023-01-21T23:11:23.887Z,56.10
2023-01-21T23:13:53.416Z,58.70
2023-01-21T23:16:21.386Z,59.67
2023-01-21T23:18:49.881Z,65.30
2023-01-21T23:21:21.502Z,68.40
2023-01-21T23:23:50.180Z,70.03
2023-01-21T23:26:19.537Z,65.33
2023-01-21T23:28:47.463Z,65.43
2023-01-21T23:31:17.585Z,64.77
2023-01-21T23:33:53.263Z,65.73
2023-01-21T23:36:20.653Z,63.80
2023-01-21T23:38:48.246Z,66.53
2023-01-21T23:41:21.204Z,68.33
2023-01-21T23:43:48.768Z,63.85
2023-01-21T23:46:19.850Z,66.03
2023-01-21T23:48:47.881Z,66.90
2023-01-21T23:51:17.358Z,65.57
2023-01-21T23:53:49.083Z,63.83
2023-01-21T23:56:21.857Z,64.77
2023-01-21T23:58:51.316Z,63.93
